Time;durP1;ratioP1;P1;durP2;ratioP2;P2;SDS_P1;SDS_P2;PMS_P1;PMS_P2;Temp;Humidity;BMP_temperature;BMP_pressure;BME280_temperature;BME280_humidity;BME280_pressure;Samples;Min_cycle;Max_cycle;Signal;HPM_P1;HPM_P2
2022/03/28 00:01:09;;;;;;;26.10;12.30;;;;;;;4.29;67.53;101528.13;4438631;32;20137;-69
2022/03/28 00:03:37;;;;;;;21.45;9.85;;;;;;;4.26;67.94;101522.81;4438773;32;20101;-69
2022/03/28 00:06:07;;;;;;;18.55;10.10;;;;;;;4.25;67.72;101518.44;4438647;32;20085;-69
2022/03/28 00:08:35;;;;;;;18.83;9.75;;;;;;;4.19;68.53;101514.75;4438626;32;20119;-69
2022/03/28 00:11:02;;;;;;;17.05;9.05;;;;;;;4.08;68.13;101522.22;4438746;32;20113;-69
2022/03/28 00:13:29;;;;;;;16.73;8.80;;;;;;;3.94;69.06;101516.56;4438720;32;20475;-69
2022/03/28 00:15:56;;;;;;;16.85;8.55;;;;;;;3.98;68.15;101520.16;4438610;32;20461;-69
2022/03/28 00:18:24;;;;;;;18.12;8.43;;;;;;;4.02;68.22;101522.91;4438638;32;20119;-69
2022/03/28 00:20:53;;;;;;;16.60;8.75;;;;;;;3.91;68.42;101524.28;4438508;32;20096;-69
2022/03/28 00:23:20;;;;;;;22.17;9.18;;;;;;;3.77;69.32;101523.81;4438509;32;20127;-69
2022/03/28 00:25:48;;;;;;;14.00;8.05;;;;;;;3.64;69.44;101519.03;4438369;32;20148;-69
2022/03/28 00:28:16;;;;;;;18.30;7.57;;;;;;;3.50;70.32;101515.94;4438624;32;20093;-69
2022/03/28 00:30:44;;;;;;;20.55;7.60;;;;;;;3.63;69.39;101517.25;4438205;32;20093;-69
2022/03/28 00:33:12;;;;;;;13.07;7.53;;;;;;;3.59;69.27;101515.37;4438586;32;20204;-69
2022/03/28 00:35:39;;;;;;;18.73;7.35;;;;;;;3.52;69.89;101508.16;4438453;32;20537;-69
2022/03/28 00:38:07;;;;;;;16.30;7.70;;;;;;;3.40;70.74;101507.75;4438428;32;20153;-69
2022/03/28 00:40:35;;;;;;;20.05;7.53;;;;;;;3.32;70.88;101510.06;4438298;32;20216;-69
2022/03/28 00:43:06;;;;;;;18.33;7.25;;;;;;;3.31;70.28;101503.97;4423972;32;20136;-69
2022/03/28 00:45:36;;;;;;;20.48;8.50;;;;;;;3.34;70.13;101498.88;4438247;32;20100;-69
2022/03/28 00:48:05;;;;;;;20.92;10.23;;;;;;;3.29;70.66;101497.84;4438381;32;20080;-69
2022/03/28 00:50:33;;;;;;;23.58;11.35;;;;;;;3.21;71.13;101495.78;4438151;32;20699;-69
2022/03/28 00:53:02;;;;;;;24.05;13.40;;;;;;;3.03;73.68;101498.59;4438228;32;20097;-69
2022/03/28 00:55:29;;;;;;;31.30;13.82;;;;;;;3.06;73.10;101501.31;4438079;32;20097;-69
2022/03/28 00:57:57;;;;;;;27.37;13.30;;;;;;;3.12;73.69;101496.34;4438129;32;20097;-69
2022/03/28 01:00:24;;;;;;;28.25;14.48;;;;;;;3.02;75.04;101495.13;4437950;32;20124;-69
2022/03/28 01:02:52;;;;;;;26.65;13.55;;;;;;;3.29;72.55;101491.75;4437915;32;20166;-69
2022/03/28 01:05:20;;;;;;;27.58;11.15;;;;;;;3.30;72.67;101485.69;4437920;32;20097;-69
2022/03/28 01:07:47;;;;;;;17.67;9.25;;;;;;;3.39;70.58;101485.13;4438887;32;20515;-69
2022/03/28 01:10:14;;;;;;;12.63;8.00;;;;;;;3.45;69.28;101481.00;4440044;32;20538;-69
2022/03/28 01:12:42;;;;;;;17.70;8.77;;;;;;;3.47;69.40;101481.09;4439966;32;20101;-69
2022/03/28 01:15:12;;;;;;;19.92;8.02;;;;;;;3.26;70.84;101481.22;4439966;32;20460;-69
2022/03/28 01:20:32;;;;;;;25.23;7.90;;;;;;;2.92;72.48;101474.78;4439760;32;20453;-69
2022/03/28 01:22:59;;;;;;;21.95;8.05;;;;;;;2.77;72.86;101469.03;4439856;32;20101;-69
2022/03/28 01:25:29;;;;;;;15.90;8.20;;;;;;;2.82;72.99;101475.28;4439825;32;20555;-69
2022/03/28 01:27:58;;;;;;;18.70;8.13;;;;;;;2.70;73.72;101464.41;4439929;32;20171;-69
2022/03/28 01:30:29;;;;;;;13.30;6.43;;;;;;;2.58;74.72;101464.81;4439733;32;20226;-69
2022/03/28 01:32:58;;;;;;;11.95;6.25;;;;;;;2.68;72.39;101464.34;4439707;32;20089;-69
2022/03/28 01:35:29;;;;;;;12.45;6.43;;;;;;;2.87;70.22;101460.72;4439789;32;20112;-69
2022/03/28 01:37:58;;;;;;;16.33;6.57;;;;;;;3.00;69.60;101464.63;4425583;32;20607;-69
2022/03/28 01:40:26;;;;;;;12.10;5.78;;;;;;;3.02;69.02;101456.06;4439877;32;20105;-69
2022/03/28 01:42:54;;;;;;;13.18;6.25;;;;;;;2.88;70.23;101458.16;4439695;32;20602;-69
2022/03/28 01:45:21;;;;;;;10.15;5.80;;;;;;;3.05;68.40;101452.69;4439733;32;20362;-69
2022/03/28 01:47:49;;;;;;;27.40;7.20;;;;;;;3.10;67.90;101452.00;4439574;32;20158;-69
2022/03/28 01:50:17;;;;;;;10.73;6.30;;;;;;;3.00;69.52;101449.03;4439580;32;20120;-69
2022/03/28 01:52:45;;;;;;;11.65;6.80;;;;;;;3.02;68.64;101444.75;4439613;32;20156;-69
2022/03/28 01:55:13;;;;;;;14.98;9.07;;;;;;;2.98;70.17;101451.59;4439637;32;20081;-69
2022/03/28 01:57:42;;;;;;;13.23;7.00;;;;;;;3.04;68.37;101446.59;4439673;32;20107;-69
2022/03/28 02:00:13;;;;;;;16.92;7.40;;;;;;;3.07;68.37;101445.81;4439715;32;20452;-69
2022/03/28 02:02:41;;;;;;;35.63;8.18;;;;;;;2.94;69.03;101443.63;4439839;32;20163;-69
2022/03/28 02:05:11;;;;;;;13.93;7.07;;;;;;;2.75;71.67;101445.53;4439704;32;20162;-69
2022/03/28 02:07:40;;;;;;;12.88;7.50;;;;;;;2.67;71.27;101440.87;4439580;32;20088;-69
2022/03/28 02:10:09;;;;;;;12.15;7.22;;;;;;;2.80;69.93;101444.00;4439546;32;20170;-69
2022/03/28 02:12:37;;;;;;;12.98;6.80;;;;;;;2.88;69.63;101436.47;4439744;32;20178;-69
2022/03/28 02:15:06;;;;;;;17.55;6.45;;;;;;;2.86;69.58;101440.72;4439587;32;20085;-69
2022/03/28 02:17:34;;;;;;;17.62;8.27;;;;;;;2.90;69.80;101432.22;4439380;32;20089;-69
2022/03/28 02:20:05;;;;;;;14.68;6.90;;;;;;;2.67;72.04;101433.97;4439567;32;20109;-69
2022/03/28 02:22:33;;;;;;;13.10;7.32;;;;;;;2.63;71.06;101439.88;4439608;32;20097;-69
2022/03/28 02:25:01;;;;;;;14.57;7.10;;;;;;;2.77;69.80;101427.38;4439436;32;20119;-69
2022/03/28 02:27:28;;;;;;;11.57;6.97;;;;;;;2.73;71.18;101434.19;4439715;32;20141;-69
2022/03/28 02:29:55;;;;;;;15.35;7.03;;;;;;;2.63;71.82;101429.47;4439549;32;20147;-69
2022/03/28 02:32:22;;;;;;;13.90;6.90;;;;;;;2.49;72.38;101434.16;4439559;32;20456;-69
2022/03/28 02:34:50;;;;;;;11.50;6.75;;;;;;;2.51;72.55;101431.59;4439723;32;20460;-69
2022/03/28 02:37:17;;;;;;;11.48;6.57;;;;;;;2.49;72.37;101433.28;4439543;32;20097;-69
2022/03/28 02:39:44;;;;;;;17.48;7.15;;;;;;;2.59;71.74;101431.06;4439406;32;20100;-69
2022/03/28 02:42:11;;;;;;;12.88;6.82;;;;;;;2.58;72.12;101433.59;4439675;32;20093;-69
2022/03/28 02:44:39;;;;;;;26.92;7.60;;;;;;;2.36;72.80;101432.78;4439586;32;20081;-69
2022/03/28 02:47:06;;;;;;;15.02;6.97;;;;;;;2.26;73.86;101430.69;4439444;32;20104;-69
2022/03/28 02:49:33;;;;;;;13.00;6.37;;;;;;;2.25;73.11;101434.09;4439431;32;20499;-69
2022/03/28 02:52:01;;;;;;;12.60;5.50;;;;;;;2.49;71.23;101433.28;4439293;32;20472;-69
2022/03/28 02:54:28;;;;;;;16.15;6.65;;;;;;;2.52;70.76;101426.47;4439379;32;20093;-69
2022/03/28 02:56:55;;;;;;;12.90;6.45;;;;;;;2.45;71.17;101431.41;4439408;32;20100;-69
2022/03/28 02:59:23;;;;;;;14.40;6.82;;;;;;;2.51;71.52;101418.59;4439175;32;20093;-69
2022/03/28 03:01:51;;;;;;;11.85;6.25;;;;;;;2.45;71.76;101426.19;4439307;32;20101;-69
2022/03/28 03:04:18;;;;;;;17.62;6.95;;;;;;;2.56;70.97;101417.06;4439249;32;20116;-69
2022/03/28 03:06:45;;;;;;;16.52;7.47;;;;;;;2.43;71.63;101423.50;4438996;32;20116;-69
2022/03/28 03:09:12;;;;;;;18.50;7.05;;;;;;;2.49;70.49;101423.75;4439039;32;20093;-69
2022/03/28 03:11:40;;;;;;;17.83;7.00;;;;;;;2.42;71.56;101424.34;4439080;32;20089;-69
2022/03/28 03:14:07;;;;;;;16.58;7.05;;;;;;;2.47;71.38;101424.50;4439025;32;20073;-69
2022/03/28 03:16:34;;;;;;;13.45;7.00;;;;;;;2.26;72.92;101424.59;4439083;32;20535;-69
2022/03/28 03:19:03;;;;;;;13.07;6.25;;;;;;;2.14;72.05;101423.28;4438982;32;20482;-69
2022/03/28 03:21:30;;;;;;;15.38;6.87;;;;;;;2.29;71.04;101423.00;4439000;32;20170;-69
2022/03/28 03:23:57;;;;;;;15.95;6.12;;;;;;;2.21;72.46;101424.41;4438963;32;20115;-69
2022/03/28 03:26:24;;;;;;;16.92;5.72;;;;;;;2.28;70.68;101423.81;4438957;32;20481;-69
2022/03/28 03:28:54;;;;;;;13.68;6.05;;;;;;;2.56;69.32;101417.06;4439138;32;20096;-69
2022/03/28 03:31:21;;;;;;;15.02;7.87;;;;;;;2.38;70.40;101419.87;4437988;32;20101;-69
2022/03/28 03:33:49;;;;;;;12.85;6.68;;;;;;;2.17;71.96;101413.84;4438866;32;20463;-69
2022/03/28 03:36:16;;;;;;;10.98;6.78;;;;;;;2.08;72.41;101416.97;4438943;32;20479;-69
2022/03/28 03:38:43;;;;;;;15.30;6.70;;;;;;;2.18;71.28;101416.50;4438709;32;20131;-69
2022/03/28 03:41:10;;;;;;;15.40;6.32;;;;;;;2.10;72.04;101412.72;4438919;32;20115;-69
2022/03/28 03:43:37;;;;;;;10.18;5.90;;;;;;;2.07;71.15;101412.59;4438865;32;20080;-69
2022/03/28 03:46:04;;;;;;;13.82;6.20;;;;;;;2.06;71.26;101411.72;4438581;32;20516;-69
2022/03/28 03:48:32;;;;;;;13.05;6.30;;;;;;;2.11;72.05;101409.28;4439063;32;20495;-69
2022/03/28 03:50:59;;;;;;;13.77;5.97;;;;;;;2.06;72.21;101413.44;4438803;32;20097;-69
2022/03/28 03:53:26;;;;;;;17.75;6.45;;;;;;;2.23;70.83;101407.16;4438782;32;20509;-69
2022/03/28 03:55:54;;;;;;;16.55;7.03;;;;;;;2.11;71.16;101407.56;4438768;32;20093;-69
2022/03/28 03:58:21;;;;;;;17.92;7.05;;;;;;;2.21;70.73;101410.53;4435131;32;20558;-69
2022/03/28 04:00:48;;;;;;;17.73;6.85;;;;;;;2.14;71.15;101407.69;4428900;32;20101;-69
2022/03/28 04:03:15;;;;;;;20.95;7.65;;;;;;;2.25;69.78;101402.91;4433882;32;20093;-69
2022/03/28 04:05:43;;;;;;;11.35;6.55;;;;;;;2.19;70.68;101413.09;4437812;32;20089;-69
2022/03/28 04:08:10;;;;;;;21.55;6.97;;;;;;;2.31;69.24;101410.06;4426044;32;20132;-69
2022/03/28 04:10:37;;;;;;;15.82;6.82;;;;;;;2.27;69.86;101401.25;4423738;32;20117;-70
2022/03/28 04:13:04;;;;;;;14.27;6.35;;;;;;;2.27;70.35;101406.47;4426060;32;20115;-70
2022/03/28 04:15:32;;;;;;;12.50;6.60;;;;;;;2.49;68.66;101402.06;4430156;32;20085;-70
2022/03/28 04:17:59;;;;;;;15.82;7.03;;;;;;;2.35;69.02;101399.81;4431636;32;20120;-69
2022/03/28 04:20:27;;;;;;;29.30;6.75;;;;;;;2.41;68.24;101404.38;4432301;32;20105;-69
2022/03/28 04:22:55;;;;;;;24.98;7.72;;;;;;;2.47;67.71;101406.31;4430202;32;20105;-70
2022/03/28 04:25:22;;;;;;;14.02;7.28;;;;;;;2.53;67.33;101409.16;4430030;32;20093;-70
2022/03/28 04:27:49;;;;;;;16.15;7.20;;;;;;;2.39;68.60;101409.50;4430493;32;20155;-70
2022/03/28 04:30:17;;;;;;;16.42;6.60;;;;;;;2.31;68.77;101399.66;4431268;32;20105;-70
2022/03/28 04:32:44;;;;;;;20.85;7.85;;;;;;;2.26;69.35;101404.69;4431682;32;20109;-70
2022/03/28 04:35:12;;;;;;;17.92;7.37;;;;;;;2.08;71.48;101393.56;4425981;32;20154;-70
2022/03/28 04:37:41;;;;;;;20.92;8.32;;;;;;;1.97;71.56;101395.75;4430983;32;20772;-70
2022/03/28 04:40:12;;;;;;;17.17;8.15;;;;;;;1.88;72.12;101396.28;4439177;32;20128;-70
2022/03/28 04:42:39;;;;;;;21.05;8.57;;;;;;;1.80;72.76;101396.78;4439179;32;20088;-70
2022/03/28 04:45:07;;;;;;;16.25;7.62;;;;;;;1.93;71.70;101404.25;4439072;32;20161;-70
2022/03/28 04:47:34;;;;;;;20.02;7.22;;;;;;;1.92;71.63;101392.97;4436566;32;20124;-70
2022/03/28 04:50:03;;;;;;;13.60;7.40;;;;;;;2.02;71.56;101395.94;4439070;32;20856;-70
2022/03/28 04:52:30;;;;;;;23.15;7.80;;;;;;;2.10;70.96;101400.59;4429849;32;20166;-70
2022/03/28 04:54:58;;;;;;;22.20;7.50;;;;;;;2.30;69.65;101400.50;4435422;32;20100;-68
2022/03/28 04:57:28;;;;;;;11.77;6.78;;;;;;;2.23;70.48;101401.97;4437583;32;20173;-71
2022/03/28 04:59:55;;;;;;;16.80;7.70;;;;;;;2.36;69.18;101406.78;4429353;32;20106;-70
2022/03/28 05:02:23;;;;;;;19.87;6.90;;;;;;;2.38;69.66;101402.53;4430641;32;20673;-70
2022/03/28 05:04:50;;;;;;;19.35;6.55;;;;;;;2.52;69.34;101403.06;4438838;32;20089;-70
2022/03/28 05:07:36;;;;;;;15.02;7.30;;;;;;;2.48;70.03;101405.50;4434719;32;20472;-70
2022/03/28 05:10:05;;;;;;;26.95;7.85;;;;;;;2.52;69.52;101407.38;4430267;32;20164;-71
2022/03/28 05:12:33;;;;;;;25.90;8.52;;;;;;;2.80;67.45;101406.69;4431558;32;20451;-70
2022/03/28 05:15:01;;;;;;;33.33;9.73;;;;;;;2.79;68.93;101405.78;4430307;32;20089;-70
2022/03/28 05:17:31;;;;;;;23.67;9.43;;;;;;;2.78;67.92;101405.72;4429372;32;20167;-71
2022/03/28 05:19:59;;;;;;;30.35;11.07;;;;;;;2.78;67.62;101408.31;4429202;32;20093;-70
2022/03/28 05:22:26;;;;;;;22.65;9.25;;;;;;;2.87;68.14;101411.28;4429965;32;20085;-71
2022/03/28 05:24:55;;;;;;;37.80;10.32;;;;;;;2.93;69.04;101398.44;4433542;32;20120;-71
2022/03/28 05:27:22;;;;;;;43.10;11.82;;;;;;;3.02;67.68;101401.38;4436883;32;20119;-71
2022/03/28 05:29:50;;;;;;;36.95;11.32;;;;;;;3.16;66.66;101409.69;4435803;32;20453;-70
2022/03/28 05:32:17;;;;;;;37.05;12.90;;;;;;;3.33;65.93;101403.34;4436944;32;20081;-71
2022/03/28 05:34:44;;;;;;;49.58;13.73;;;;;;;3.50;64.38;101396.09;4436728;32;20519;-70
2022/03/28 05:37:18;;;;;;;50.50;17.00;;;;;;;3.69;63.57;101397.56;4436509;32;20101;-71
2022/03/28 05:39:46;;;;;;;52.75;15.82;;;;;;;3.93;61.62;101397.47;4425964;32;20153;-70
2022/03/28 05:42:14;;;;;;;58.38;16.30;;;;;;;4.08;61.68;101386.59;4427209;32;20094;-70
2022/03/28 05:44:44;;;;;;;47.85;17.02;;;;;;;4.28;60.55;101397.66;4428779;32;20154;-70
2022/03/28 05:47:11;;;;;;;47.75;17.67;;;;;;;4.46;59.92;101400.81;4429781;32;20149;-70
2022/03/28 05:49:38;;;;;;;43.67;14.90;;;;;;;4.67;59.48;101400.53;4427534;32;20104;-70
2022/03/28 05:52:06;;;;;;;44.45;14.23;;;;;;;4.85;58.33;101399.28;4429158;32;20090;-69
2022/03/28 05:54:33;;;;;;;38.88;13.93;;;;;;;5.06;57.52;101405.09;4428653;32;20088;-69
2022/03/28 05:57:01;;;;;;;36.58;10.90;;;;;;;5.22;56.93;101402.03;4424283;32;20089;-69
2022/03/28 05:59:28;;;;;;;24.92;9.93;;;;;;;5.35;55.21;101400.63;4431578;32;20123;-71
2022/03/28 06:01:56;;;;;;;29.85;10.45;;;;;;;5.47;53.52;101397.44;4438391;32;20769;-70
2022/03/28 06:04:23;;;;;;;20.33;8.88;;;;;;;5.53;53.59;101391.47;4434523;32;20104;-70
2022/03/28 06:06:51;;;;;;;18.90;8.35;;;;;;;5.61;53.98;101395.16;4429004;32;20539;-72
2022/03/28 06:09:18;;;;;;;12.80;7.60;;;;;;;5.65;52.48;101392.66;4426780;32;20166;-70
2022/03/28 06:11:45;;;;;;;27.20;7.12;;;;;;;5.73;51.25;101393.72;4424720;32;20115;-70
2022/03/28 06:14:12;;;;;;;22.10;7.60;;;;;;;5.93;50.82;101395.94;4424871;32;20989;-70
2022/03/28 06:16:39;;;;;;;21.85;7.40;;;;;;;6.15;50.27;101392.13;4424852;32;20085;-71
2022/03/28 06:19:07;;;;;;;21.58;7.90;;;;;;;6.19;48.81;101391.34;4397636;32;20098;-71
2022/03/28 06:21:34;;;;;;;42.55;7.37;;;;;;;6.17;49.47;101393.03;4424654;32;20081;-70
2022/03/28 06:24:06;;;;;;;35.13;7.25;;;;;;;6.25;48.74;101391.44;4424698;32;20166;-70
2022/03/28 06:26:34;;;;;;;13.57;7.15;;;;;;;6.37;48.92;101394.34;4424514;32;20180;-71
2022/03/28 06:29:01;;;;;;;20.17;8.65;;;;;;;6.47;49.46;101395.44;4424677;32;20097;-69
2022/03/28 06:31:28;;;;;;;27.08;7.55;;;;;;;6.62;48.12;101387.00;4424464;32;20499;-71
2022/03/28 06:34:02;;;;;;;19.83;7.07;;;;;;;6.82;48.07;101387.38;4424391;32;20117;-70
2022/03/28 06:36:30;;;;;;;15.70;7.28;;;;;;;6.91;48.18;101384.94;4424600;32;20132;-70
2022/03/28 06:38:57;;;;;;;26.60;8.02;;;;;;;6.85;48.26;101392.69;4424398;32;20145;-71
2022/03/28 06:41:25;;;;;;;21.75;8.32;;;;;;;7.00;47.64;101384.25;4424324;32;20089;-71
2022/03/28 06:43:52;;;;;;;26.40;7.15;;;;;;;7.04;48.67;101386.94;4410363;32;20118;-71
2022/03/28 06:46:20;;;;;;;15.07;7.25;;;;;;;7.18;48.91;101379.34;4424236;32;20101;-71
2022/03/28 06:48:49;;;;;;;18.30;6.78;;;;;;;7.26;45.44;101388.22;4424447;32;20154;-71
2022/03/28 06:51:16;;;;;;;15.73;7.43;;;;;;;7.41;46.19;101379.72;4424170;32;20132;-71
2022/03/28 06:53:48;;;;;;;25.50;6.97;;;;;;;7.39;45.54;101378.84;4424383;32;20103;-70
2022/03/28 06:56:20;;;;;;;15.00;7.20;;;;;;;7.39;45.29;101382.34;4424236;32;20090;-71
2022/03/28 06:58:47;;;;;;;22.37;6.72;;;;;;;7.67;47.12;101382.78;4424202;32;20144;-70
2022/03/28 07:01:14;;;;;;;19.45;7.80;;;;;;;7.87;46.94;101380.47;4426535;32;20096;-70
2022/03/28 07:03:42;;;;;;;13.10;6.22;;;;;;;7.97;45.84;101374.50;4426806;32;20102;-70
2022/03/28 07:06:10;;;;;;;19.90;6.87;;;;;;;8.25;45.27;101374.88;4423301;32;20102;-70
2022/03/28 07:08:37;;;;;;;40.72;7.60;;;;;;;8.35;44.43;101372.41;4427973;32;20108;-70
2022/03/28 07:11:04;;;;;;;57.80;10.25;;;;;;;8.49;44.46;101374.38;4439489;32;20085;-70
2022/03/28 07:13:32;;;;;;;20.52;6.85;;;;;;;8.61;43.00;101371.88;4439812;32;20094;-70
2022/03/28 07:15:59;;;;;;;16.58;7.07;;;;;;;8.79;43.05;101366.81;4439696;32;20089;-70
2022/03/28 07:18:26;;;;;;;16.17;6.57;;;;;;;8.84;43.33;101366.91;4439452;32;20507;-70
2022/03/28 07:20:54;;;;;;;20.58;6.75;;;;;;;8.93;42.80;101366.97;4439251;32;20088;-70
2022/03/28 07:23:25;;;;;;;15.85;8.18;;;;;;;9.10;42.28;101364.53;4439213;32;20111;-70
2022/03/28 07:25:53;;;;;;;16.12;7.30;;;;;;;9.27;41.88;101359.44;4438464;32;20716;-70
2022/03/28 07:28:21;;;;;;;21.80;7.57;;;;;;;9.22;40.55;101361.12;4438922;32;20787;-71
2022/03/28 07:30:48;;;;;;;25.50;7.40;;;;;;;9.25;41.55;101369.03;4430648;32;20094;-71
2022/03/28 07:33:15;;;;;;;27.42;6.93;;;;;;;9.51;41.16;101358.78;4423859;32;20401;-71
2022/03/28 07:35:45;;;;;;;37.42;7.37;;;;;;;9.74;39.49;101364.19;4423952;32;20097;-70
2022/03/28 07:38:12;;;;;;;16.73;6.95;;;;;;;9.88;39.92;101367.81;4423784;32;20100;-69
2022/03/28 07:40:45;;;;;;;32.83;7.90;;;;;;;9.78;38.98;101360.72;4423918;32;20081;-70
2022/03/28 07:43:12;;;;;;;23.08;7.07;;;;;;;9.92;39.60;101360.81;4423494;32;20098;-70
2022/03/28 07:45:39;;;;;;;45.38;8.45;;;;;;;10.15;39.54;101355.69;4423951;32;20125;-71
2022/03/28 07:48:07;;;;;;;17.90;7.22;;;;;;;10.33;39.12;101353.19;4423790;32;20174;-71
2022/03/28 07:50:34;;;;;;;21.55;7.07;;;;;;;10.43;39.16;101354.97;4423868;32;20089;-70
2022/03/28 07:53:03;;;;;;;24.85;6.62;;;;;;;10.51;38.29;101350.59;4423894;32;20119;-69
2022/03/28 07:55:31;;;;;;;16.73;6.15;;;;;;;10.67;37.87;101346.28;4423824;32;20179;-70
2022/03/28 07:58:01;;;;;;;21.83;6.97;;;;;;;11.07;37.68;101349.00;4426719;32;20800;-70
2022/03/28 08:00:29;;;;;;;15.25;6.55;;;;;;;11.06;36.67;101351.63;4430817;32;20166;-70
2022/03/28 08:02:57;;;;;;;20.85;6.10;;;;;;;11.20;36.54;101352.53;4427218;32;20093;-70
2022/03/28 08:05:26;;;;;;;23.27;7.37;;;;;;;11.31;36.14;101350.81;4430821;32;20127;-70
2022/03/28 08:07:53;;;;;;;22.98;6.62;;;;;;;11.72;38.72;101342.84;4429907;32;20152;-70
2022/03/28 08:10:22;;;;;;;13.80;5.95;;;;;;;11.69;35.25;101342.84;4427702;32;20127;-70
2022/03/28 08:12:50;;;;;;;16.85;5.70;;;;;;;11.70;34.60;101335.84;4429907;32;20152;-70
2022/03/28 08:15:18;;;;;;;16.80;6.43;;;;;;;11.81;35.14;101336.69;4431883;32;20226;-70
2022/03/28 08:17:48;;;;;;;27.52;6.80;;;;;;;12.05;35.54;101334.87;4427809;32;20101;-70
2022/03/28 08:20:16;;;;;;;18.85;6.25;;;;;;;12.18;35.20;101336.62;4425438;32;20128;-70
2022/03/28 08:22:48;;;;;;;19.17;7.18;;;;;;;12.57;36.23;101332.94;4425382;32;20143;-70
2022/03/28 08:25:17;;;;;;;15.73;5.55;;;;;;;12.60;33.70;101327.63;4426262;32;20672;-70
2022/03/28 08:27:45;;;;;;;16.37;5.68;;;;;;;12.64;33.88;101323.19;4427435;32;20131;-70
2022/03/28 08:30:12;;;;;;;16.73;5.70;;;;;;;12.81;33.43;101325.75;4429262;32;20122;-70
2022/03/28 08:32:40;;;;;;;17.87;6.18;;;;;;;12.51;33.73;101324.16;4428713;32;20153;-70
2022/03/28 08:35:08;;;;;;;21.70;5.75;;;;;;;12.64;33.52;101313.50;4428445;32;20101;-70
2022/03/28 08:37:36;;;;;;;15.60;5.65;;;;;;;12.71;33.64;101317.00;4428119;32;20101;-70
2022/03/28 08:40:04;;;;;;;10.90;6.18;;;;;;;12.82;34.25;101314.28;4422579;32;20141;-70
2022/03/28 08:42:33;;;;;;;11.18;5.35;;;;;;;13.27;35.49;101307.81;4422430;32;20174;-70
2022/03/28 08:45:03;;;;;;;16.62;6.12;;;;;;;13.63;32.94;101303.94;4422547;32;20206;-70
2022/03/28 08:47:32;;;;;;;10.45;5.45;;;;;;;13.90;33.27;101303.72;4422801;32;20511;-70
2022/03/28 08:50:20;;;;;;;15.93;5.80;;;;;;;13.97;32.90;101308.03;4422662;32;20152;-70
2022/03/28 08:52:47;;;;;;;12.15;5.18;;;;;;;14.12;33.42;101302.56;4422606;32;20130;-70
2022/03/28 08:55:17;;;;;;;14.18;5.90;;;;;;;14.30;33.11;101298.81;4422439;32;20128;-71
2022/03/28 08:57:45;;;;;;;14.23;5.55;;;;;;;14.50;33.29;101295.94;4428877;32;20081;-70
2022/03/28 09:00:12;;;;;;;8.65;5.55;;;;;;;14.35;35.41;101297.87;4437783;32;20158;-70
2022/03/28 09:02:46;;;;;;;9.63;5.60;;;;;;;14.39;35.75;101297.81;4437887;32;20090;-71
2022/03/28 09:05:27;;;;;;;10.23;5.28;;;;;;;14.65;35.02;101293.06;4437816;32;20115;-71
2022/03/28 09:07:55;;;;;;;10.55;6.07;;;;;;;14.90;34.48;101290.94;4437736;32;20089;-70
2022/03/28 09:10:24;;;;;;;24.65;6.35;;;;;;;15.08;35.08;101281.78;4437664;32;20547;-70
2022/03/28 09:12:57;;;;;;;13.23;5.78;;;;;;;15.28;34.70;101289.44;4437665;32;20093;-70
2022/03/28 09:15:25;;;;;;;21.75;5.70;;;;;;;15.49;33.64;101281.09;4432594;32;20132;-70
2022/03/28 09:17:57;;;;;;;9.65;5.43;;;;;;;15.68;33.28;101286.09;4431747;32;20134;-71
2022/03/28 09:20:27;;;;;;;15.15;4.85;;;;;;;15.57;33.24;101277.44;4428287;32;20085;-70
2022/03/28 09:22:54;;;;;;;15.63;5.82;;;;;;;15.69;33.93;101278.13;4422336;32;20093;-70
2022/03/28 09:25:23;;;;;;;15.05;5.40;;;;;;;15.76;33.08;101266.47;4422120;32;20101;-70
2022/03/28 09:27:50;;;;;;;12.37;5.85;;;;;;;15.95;33.23;101266.09;4427150;32;20551;-70
2022/03/28 09:30:19;;;;;;;12.98;5.62;;;;;;;16.06;32.95;101268.56;4427967;32;20085;-70
2022/03/28 09:32:52;;;;;;;8.43;5.07;;;;;;;16.44;33.23;101257.97;4437388;32;20097;-70
2022/03/28 09:35:25;;;;;;;16.95;5.03;;;;;;;16.78;34.71;101257.22;4438771;32;20096;-70
2022/03/28 09:38:05;;;;;;;7.97;5.05;;;;;;;16.32;36.27;101252.91;4433778;32;20432;-70
2022/03/28 09:40:43;;;;;;;14.07;5.20;;;;;;;16.57;35.75;101247.03;4429022;32;20085;-71
2022/03/28 09:43:20;;;;;;;10.82;4.93;;;;;;;16.41;35.86;101235.88;4433204;32;20102;-71
2022/03/28 09:45:50;;;;;;;15.88;4.45;;;;;;;16.64;35.09;101238.00;4424418;32;20127;-71
2022/03/28 09:48:19;;;;;;;19.37;5.18;;;;;;;16.79;35.55;101231.50;4425467;32;20089;-71
2022/03/28 09:50:55;;;;;;;12.00;5.00;;;;;;;17.00;35.37;101223.00;4411555;32;20518;-71
2022/03/28 09:53:31;;;;;;;16.98;5.10;;;;;;;16.92;34.78;101227.59;4431709;32;20143;-71
2022/03/28 09:56:04;;;;;;;7.32;4.90;;;;;;;16.84;34.79;101217.16;4431826;32;20173;-71
2022/03/28 09:58:49;;;;;;;8.57;5.30;;;;;;;17.31;34.75;101219.53;4433371;32;20421;-71
2022/03/28 10:01:23;;;;;;;13.23;4.68;;;;;;;17.71;34.14;101222.00;4429607;32;20084;-70
2022/03/28 10:03:55;;;;;;;11.05;5.43;;;;;;;17.41;34.92;101210.37;4429537;32;20081;-70
2022/03/28 10:06:22;;;;;;;9.25;5.50;;;;;;;17.58;34.19;101208.12;4438942;32;20177;-71
2022/03/28 10:08:50;;;;;;;11.50;5.15;;;;;;;17.69;34.89;101205.16;4439092;32;20089;-71
2022/03/28 10:11:18;;;;;;;11.38;5.03;;;;;;;17.99;34.21;101200.78;4439299;32;20084;-70
2022/03/28 10:13:46;;;;;;;13.73;5.60;;;;;;;18.52;33.94;101187.59;4434678;32;20089;-69
2022/03/28 10:16:15;;;;;;;8.93;4.93;;;;;;;18.45;32.76;101190.50;4430563;32;20124;-70
2022/03/28 10:18:49;;;;;;;11.45;5.72;;;;;;;18.55;33.22;101184.81;4432550;32;20096;-72
2022/03/28 10:21:24;;;;;;;10.18;4.93;;;;;;;18.81;32.65;101178.66;4436745;32;20111;-72
2022/03/28 10:24:06;;;;;;;8.95;4.70;;;;;;;19.04;32.55;101180.53;4431523;32;20114;-70
2022/03/28 10:26:38;;;;;;;11.15;4.82;;;;;;;19.48;32.06;101180.78;4414775;32;20125;-71
2022/03/28 10:29:08;;;;;;;10.93;5.60;;;;;;;19.47;32.71;101168.34;4439621;32;20115;-70
2022/03/28 10:31:55;;;;;;;6.75;5.07;;;;;;;19.49;31.98;101163.81;4431011;32;20717;-71
2022/03/28 10:34:44;;;;;;;20.05;5.03;;;;;;;19.25;32.25;101154.00;4433150;32;20086;-71
2022/03/28 10:37:34;;;;;;;7.22;4.65;;;;;;;19.46;31.93;101153.22;4429178;32;20085;-72
2022/03/28 10:40:29;;;;;;;15.63;4.90;;;;;;;19.50;32.09;101151.31;4423290;32;20119;-72
2022/03/28 10:43:11;;;;;;;11.60;4.85;;;;;;;19.96;31.43;101142.44;4424377;32;20150;-72
2022/03/28 10:45:47;;;;;;;11.12;4.90;;;;;;;20.34;31.49;101132.03;4424007;32;20163;-73
2022/03/28 10:48:16;;;;;;;10.25;4.53;;;;;;;20.09;31.39;101128.59;4426480;32;20154;-73
2022/03/28 10:50:54;;;;;;;7.43;3.92;;;;;;;20.05;31.67;101123.38;4429118;32;20108;-74
2022/03/28 10:53:32;;;;;;;6.70;4.03;;;;;;;20.57;31.13;101122.25;4424119;32;20125;-71
2022/03/28 10:56:02;;;;;;;14.57;4.50;;;;;;;20.94;31.00;101111.69;4427642;32;20092;-73
2022/03/28 10:58:53;;;;;;;18.17;4.10;;;;;;;20.74;30.83;101109.88;4431275;32;20129;-74
2022/03/28 11:01:26;;;;;;;10.38;4.25;;;;;;;20.48;30.91;101102.91;4432497;32;20464;-74
2022/03/28 11:04:04;;;;;;;13.82;4.80;;;;;;;20.82;30.85;101098.84;4431351;32;20107;-73
2022/03/28 11:07:07;;;;;;;9.85;4.03;;;;;;;21.03;30.44;101105.06;4431903;32;20093;-73
2022/03/28 11:09:41;;;;;;;6.57;4.30;;;;;;;21.28;30.55;101088.78;4373568;32;20202;-73
2022/03/28 11:12:18;;;;;;;6.82;4.68;;;;;;;21.79;29.51;101075.72;4421128;32;20150;-73
2022/03/28 11:14:49;;;;;;;5.75;4.03;;;;;;;22.26;28.56;101081.53;4432291;32;20184;-73
2022/03/28 11:17:25;;;;;;;5.60;3.40;;;;;;;22.27;28.46;101067.16;4434995;32;20093;-73
2022/03/28 11:19:54;;;;;;;6.68;3.90;;;;;;;24.31;27.02;101062.44;4438900;32;20135;-73
2022/03/28 11:22:50;;;;;;;9.18;3.58;;;;;;;26.00;24.30;101046.63;4436054;32;20128;-74
2022/03/28 11:25:27;;;;;;;;;;;;;;;25.07;24.69;101066.03;4427798;32;20206;-73
2022/03/28 11:28:04;;;;;;;14.52;3.97;;;;;;;25.10;25.36;101047.84;4428404;32;20011;-73
2022/03/28 11:30:35;;;;;;;4.82;3.72;;;;;;;25.33;24.54;101042.84;4429235;32;20151;-72
2022/03/28 11:33:09;;;;;;;5.07;4.05;;;;;;;24.87;24.95;101030.37;4398583;32;20102;-73
2022/03/28 11:35:38;;;;;;;7.95;4.55;;;;;;;25.65;23.99;101020.06;4399488;32;20085;-72